Terminal Aerodrome Forecast
Issued by NWS Houston/Galveston, TX

Home | Current Version | Previous Version | Text Only | Print | Product List | Glossary On
Versions: 1 2 3 4 5 6 7 8 9 10 11 12 13 14 15 16 17 18 19 20 21 22 23 24 25 26 27 28 29 30 31 32 33 34
000
FTUS44 KHGX 310520
TAFCLL
TAF
KCLL 310520Z 3106/0106 14009KT P6SM SCT050 SCT250
     FM310900 17006KT P6SM SCT015 BKN150
     FM311500 21010KT P6SM SCT035 BKN150
     FM312000 27008KT P6SM VCTS BKN050CB
      TEMPO 3122/0102 VRB10G25KT 4SM TSRA BKN035CB
     FM010200 34005KT P6SM VCSH SCT015 BKN050=

USA.gov is the U.S. government's official web portal to all federal, state and local government web resources and services.